CDT,Max TemperatureF,Mean TemperatureF,Min TemperatureF,Max Dew PointF,MeanDew PointF,Min DewpointF,Max Humidity, Mean Humidity, Min Humidity, Max Sea Level PressureIn, Mean Sea Level PressureIn, Min Sea Level PressureIn, Max VisibilityMiles, Mean VisibilityMiles, Min VisibilityMiles, Max Wind SpeedMPH, Mean Wind SpeedMPH, Max Gust SpeedMPH,PrecipitationIn, CloudCover, Events, WindDirDegrees
2013-7-1,83,68,52,52,47,41,89,56,23,30.19,30.14,30.10,10,10,7,16,7,25,0.00,0,,359
2013-7-2,85,70,55,55,51,48,83,57,31,30.16,30.11,30.06,10,10,8,15,6,25,T,2,,78
2013-7-3,85,71,56,53,50,48,80,55,29,30.07,30.01,29.93,10,10,9,16,7,20,0.00,1,,162
2013-7-4,89,74,58,56,52,48,80,55,29,29.99,29.92,29.86,10,10,10,21,12,28,T,1,,148
2013-7-5,92,81,69,59,56,52,66,48,30,29.87,29.83,29.77,10,10,9,30,17,39,0.00,0,,169
2013-7-6,93,84,74,64,60,56,64,48,32,29.81,29.78,29.74,10,10,10,29,18,38,T,1,,171
2013-7-7,97,86,75,66,62,59,64,47,29,29.86,29.82,29.79,10,10,9,24,15,33,T,0,,187
2013-7-8,100,87,73,67,63,58,79,53,27,29.96,29.90,29.84,10,10,10,24,15,32,0.06,1,Rain,185
2013-7-9,102,89,75,70,66,60,82,54,25,30.00,29.87,29.79,10,10,9,26,10,35,0.09,1,Rain-Thunderstorm,234
2013-7-10,91,80,69,71,65,60,87,63,38,30.04,29.99,29.95,10,10,10,18,8,25,0.00,1,,63
2013-7-11,91,79,66,64,62,58,81,60,38,30.07,29.98,29.90,10,10,8,24,11,29,0.02,0,Rain,120
2013-7-12,98,84,70,68,63,58,68,52,35,29.94,29.89,29.82,10,10,10,23,15,32,0.00,1,,147
2013-7-13,96,86,76,71,69,67,79,61,42,29.91,29.88,29.82,10,10,10,23,15,32,0.00,1,,150
2013-7-14,85,76,66,70,66,57,97,69,40,30.10,29.98,29.88,10,9,3,28,9,35,0.35,4,Rain-Thunderstorm,124
2013-7-15,88,74,59,68,61,57,100,68,36,30.17,30.12,30.08,10,9,5,17,5,25,0.01,2,,122
2013-7-16,88,76,63,64,62,59,93,67,40,30.24,30.20,30.16,10,10,10,17,9,25,0.01,1,,177
2013-7-17,91,78,65,68,65,63,93,67,41,30.29,30.23,30.15,10,10,10,17,7,46,0.00,0,,186
2013-7-18,93,81,69,68,65,62,90,64,38,30.15,30.06,29.94,10,10,10,25,13,31,0.00,1,,190
2013-7-19,96,84,72,71,66,63,93,65,36,29.96,29.91,29.83,10,9,0,23,8,30,0.29,2,Rain-Thunderstorm,204
2013-7-20,84,75,66,72,68,61,100,82,63,29.94,29.90,29.84,10,9,1,22,6,31,0.29,3,Rain-Thunderstorm,54
2013-7-21,83,74,65,70,67,64,100,82,63,29.94,29.87,29.78,10,7,0,14,5,18,T,4,Fog,182
2013-7-22,93,80,66,72,68,66,100,74,47,29.88,29.79,29.72,10,7,2,23,7,32,0.00,0,,188
2013-7-23,83,74,65,70,64,61,93,76,58,30.01,29.89,29.79,10,10,4,28,8,37,0.11,2,Rain-Thunderstorm,54
2013-7-24,86,73,60,63,61,58,100,70,40,30.08,30.02,29.97,10,10,7,10,4,15,0.00,0,,66
2013-7-25,74,71,67,68,65,60,93,83,73,30.08,30.03,29.97,10,8,1,22,8,26,0.58,6,Rain-Thunderstorm,152
2013-7-26,81,71,61,66,63,52,100,73,46,30.12,30.05,29.98,10,8,1,18,10,25,0.01,4,Rain,360
2013-7-27,68,62,55,60,55,51,93,76,58,30.19,30.11,30.02,10,9,2,12,1,14,0.42,7,Rain-Thunderstorm,330
2013-7-28,62,61,59,61,58,55,100,92,84,30.07,30.04,30.01,10,8,2,13,7,17,0.62,8,Rain,123
2013-7-29,67,65,62,65,62,59,93,93,93,30.04,29.99,29.94,10,6,2,17,8,24,1.46,8,Rain,111
2013-7-30,80,73,66,70,66,64,100,86,71,30.13,30.05,29.99,10,6,0,10,6,13,0.00,7,Fog,22
2013-7-31,85,74,62,68,65,61,100,76,51,30.18,30.12,30.05,10,7,0,8,2,10,0.00,4,Fog,284